Time;durP1;ratioP1;P1;durP2;ratioP2;P2;SDS_P1;SDS_P2;PMS_P1;PMS_P2;Temp;Humidity;BMP_temperature;BMP_pressure;BME280_temperature;BME280_humidity;BME280_pressure;Samples;Min_cycle;Max_cycle;Signal;HPM_P1;HPM_P2
2021/05/13 00:00:52;;;;;;;14.30;10.03;;;;;;;;;;5122883;28;20526;-53
2021/05/13 00:03:19;;;;;;;15.10;10.30;;;;;;;;;;5112629;28;20470;-58
2021/05/13 00:05:45;;;;;;;11.33;10.20;;;;;;;;;;5103285;28;20456;-57
2021/05/13 00:08:14;;;;;;;16.43;10.23;;;;;;;;;;5107338;28;20459;-58
2021/05/13 00:11:07;;;;;;;11.83;9.80;;;;;;;;;;5101098;28;20506;-58
2021/05/13 00:13:36;;;;;;;10.47;9.40;;;;;;;;;;5115636;28;20534;-56
2021/05/13 00:16:03;;;;;;;11.43;10.23;;;;;;;;;;5117369;28;20477;-54
2021/05/13 00:18:36;;;;;;;13.80;10.07;;;;;;;;;;5116875;28;20632;-56
2021/05/13 00:21:02;;;;;;;14.63;11.40;;;;;;;;;;5127284;28;20490;-57
2021/05/13 00:23:29;;;;;;;15.53;11.47;;;;;;;;;;5135188;28;20471;-60
2021/05/13 00:26:09;;;;;;;12.17;10.90;;;;;;;;;;5117204;28;20447;-59
2021/05/13 00:28:37;;;;;;;28.27;11.73;;;;;;;;;;5118600;28;20470;-55
2021/05/13 00:31:04;;;;;;;16.23;10.27;;;;;;;;;;5124607;28;20438;-55
2021/05/13 00:33:31;;;;;;;16.70;11.30;;;;;;;;;;5137045;28;20537;-56
2021/05/13 00:35:59;;;;;;;14.70;12.10;;;;;;;;;;5136627;28;20442;-59
2021/05/13 00:38:26;;;;;;;15.23;11.10;;;;;;;;;;5134652;28;20466;-59
2021/05/13 00:40:55;;;;;;;12.10;10.90;;;;;;;;;;5125241;28;20478;-58
2021/05/13 00:43:22;;;;;;;12.30;10.17;;;;;;;;;;5123492;28;20448;-56
2021/05/13 00:45:49;;;;;;;12.37;9.97;;;;;;;;;;5131277;28;20470;-54
2021/05/13 00:48:20;;;;;;;12.37;10.70;;;;;;;;;;5135132;28;20476;-55
2021/05/13 00:50:47;;;;;;;12.37;9.73;;;;;;;;;;5133226;28;20576;-60
2021/05/13 00:53:14;;;;;;;15.00;9.63;;;;;;;;;;5136873;28;20458;-60
2021/05/13 00:55:47;;;;;;;14.33;10.20;;;;;;;;;;5134295;28;20442;-56
2021/05/13 00:58:15;;;;;;;12.10;9.17;;;;;;;;;;5134657;28;20462;-58
2021/05/13 01:00:49;;;;;;;11.87;9.23;;;;;;;;;;5124605;28;20475;-57
2021/05/13 01:03:34;;;;;;;9.63;8.73;;;;;;;;;;5136420;28;20446;-59
2021/05/13 01:06:01;;;;;;;13.20;10.27;;;;;;;;;;5136738;28;20458;-55
2021/05/13 01:08:28;;;;;;;16.60;10.23;;;;;;;;;;5124827;28;20455;-61
2021/05/13 01:10:55;;;;;;;12.23;9.97;;;;;;;;;;5136522;28;20457;-54
2021/05/13 01:13:24;;;;;;;14.20;9.70;;;;;;;;;;5132075;28;20479;-56
2021/05/13 01:15:54;;;;;;;13.13;8.90;;;;;;;;;;5135942;28;20458;-60
2021/05/13 01:18:23;;;;;;;13.50;8.53;;;;;;;;;;5136970;28;20474;-58
2021/05/13 01:20:51;;;;;;;12.87;8.90;;;;;;;;;;5136175;28;20481;-54
2021/05/13 01:23:20;;;;;;;10.00;8.43;;;;;;;;;;5127604;28;20485;-50
2021/05/13 01:25:50;;;;;;;9.60;8.40;;;;;;;;;;5116099;28;20471;-57
2021/05/13 01:28:18;;;;;;;9.63;8.63;;;;;;;;;;5127464;28;20535;-55
2021/05/13 01:31:00;;;;;;;9.97;8.97;;;;;;;;;;5136347;28;20450;-57
2021/05/13 01:33:28;;;;;;;9.40;8.20;;;;;;;;;;5127268;28;20461;-60
2021/05/13 01:35:55;;;;;;;12.23;9.70;;;;;;;;;;5130726;28;20472;-50
2021/05/13 01:38:30;;;;;;;10.23;8.10;;;;;;;;;;5116809;28;20435;-57
2021/05/13 01:40:57;;;;;;;13.77;8.97;;;;;;;;;;5127520;28;20569;-53
2021/05/13 01:43:25;;;;;;;9.40;7.87;;;;;;;;;;5135479;28;20450;-56
2021/05/13 01:46:00;;;;;;;11.63;8.27;;;;;;;;;;5136053;28;20488;-58
2021/05/13 01:48:27;;;;;;;9.10;8.20;;;;;;;;;;5136517;28;20461;-57
2021/05/13 01:50:53;;;;;;;10.93;7.40;;;;;;;;;;5136006;28;20469;-58
2021/05/13 01:53:23;;;;;;;10.20;8.37;;;;;;;;;;5136296;28;20458;-56
2021/05/13 01:55:50;;;;;;;9.23;8.27;;;;;;;;;;5115933;28;20462;-54
2021/05/13 01:58:17;;;;;;;9.13;7.63;;;;;;;;;;5133811;28;20455;-54
2021/05/13 02:00:45;;;;;;;9.67;8.10;;;;;;;;;;5128766;28;20495;-58
2021/05/13 02:03:12;;;;;;;10.83;8.40;;;;;;;;;;5115440;28;20457;-60
2021/05/13 02:05:49;;;;;;;9.07;8.17;;;;;;;;;;5120194;28;20509;-59
2021/05/13 02:08:21;;;;;;;9.87;8.73;;;;;;;;;;5122520;28;20462;-62
2021/05/13 02:10:48;;;;;;;11.87;7.97;;;;;;;;;;5133096;28;20445;-58
2021/05/13 02:13:23;;;;;;;12.07;8.20;;;;;;;;;;5122955;28;20492;-55
2021/05/13 02:15:51;;;;;;;9.50;7.87;;;;;;;;;;5127025;28;20450;-61
2021/05/13 02:18:20;;;;;;;11.80;8.93;;;;;;;;;;5133443;28;20438;-56
2021/05/13 02:20:47;;;;;;;17.67;7.90;;;;;;;;;;5136860;28;20482;-57
2021/05/13 02:23:14;;;;;;;8.73;7.90;;;;;;;;;;5126818;28;20491;-56
2021/05/13 02:25:42;;;;;;;11.33;9.20;;;;;;;;;;5130953;28;20463;-57
2021/05/13 02:28:09;;;;;;;9.83;8.73;;;;;;;;;;5139013;28;20518;-56
2021/05/13 02:30:37;;;;;;;16.23;9.13;;;;;;;;;;5139860;28;20460;-56
2021/05/13 02:33:11;;;;;;;13.10;8.03;;;;;;;;;;5136248;28;20438;-58
2021/05/13 02:35:41;;;;;;;8.00;7.10;;;;;;;;;;5135576;28;20461;-57
2021/05/13 02:38:08;;;;;;;9.70;7.53;;;;;;;;;;5122988;28;20541;-58
2021/05/13 02:40:35;;;;;;;9.83;7.30;;;;;;;;;;5130773;28;20524;-56
2021/05/13 02:43:03;;;;;;;12.13;8.67;;;;;;;;;;5119009;28;20455;-57
2021/05/13 02:45:32;;;;;;;11.20;10.00;;;;;;;;;;5119017;28;20455;-56
2021/05/13 02:47:59;;;;;;;8.73;7.53;;;;;;;;;;5135092;28;20610;-57
2021/05/13 02:50:26;;;;;;;9.20;8.20;;;;;;;;;;5139219;28;20468;-55
2021/05/13 02:53:00;;;;;;;12.03;7.03;;;;;;;;;;5139686;28;20446;-57
2021/05/13 02:55:27;;;;;;;13.00;7.87;;;;;;;;;;5138793;28;20458;-54
2021/05/13 02:57:55;;;;;;;9.50;8.10;;;;;;;;;;5130691;28;20454;-53
2021/05/13 03:00:31;;;;;;;8.33;7.10;;;;;;;;;;5137101;28;20482;-57
2021/05/13 03:02:58;;;;;;;10.03;7.77;;;;;;;;;;5138411;28;20470;-57
2021/05/13 03:05:27;;;;;;;11.70;7.47;;;;;;;;;;5138728;28;20450;-59
2021/05/13 03:08:01;;;;;;;9.30;7.00;;;;;;;;;;5118926;28;20438;-59
2021/05/13 03:10:35;;;;;;;8.53;7.63;;;;;;;;;;5118920;28;20458;-59
2021/05/13 03:13:02;;;;;;;9.47;7.43;;;;;;;;;;5118462;28;20450;-54
2021/05/13 03:15:29;;;;;;;7.93;6.30;;;;;;;;;;5118562;28;20434;-58
2021/05/13 03:17:56;;;;;;;7.47;6.60;;;;;;;;;;5127499;28;20457;-55
2021/05/13 03:20:27;;;;;;;7.03;6.32;;;;;;;;;;5139028;28;20486;-55
2021/05/13 03:28:46;;;;;;;8.40;7.30;;;;;;;;;;5136480;28;20464;-59
2021/05/13 03:31:12;;;;;;;8.10;7.30;;;;;;;;;;5138169;28;20450;-52
2021/05/13 03:33:48;;;;;;;11.60;5.90;;;;;;;;;;5139128;28;20457;-58
2021/05/13 03:36:15;;;;;;;9.13;7.47;;;;;;;;;;5137254;28;20485;-56
2021/05/13 03:38:42;;;;;;;9.90;8.00;;;;;;;;;;5138889;28;20637;-57
2021/05/13 03:41:10;;;;;;;8.97;7.33;;;;;;;;;;5128874;28;20493;-58
2021/05/13 03:43:37;;;;;;;10.80;7.07;;;;;;;;;;5117741;28;20455;-59
2021/05/13 03:46:04;;;;;;;9.03;6.80;;;;;;;;;;5117791;28;20455;-59
2021/05/13 03:48:34;;;;;;;6.93;6.20;;;;;;;;;;5138023;28;20462;-57
2021/05/13 03:51:01;;;;;;;7.00;6.30;;;;;;;;;;5137604;28;20454;-57
2021/05/13 03:53:28;;;;;;;7.90;6.90;;;;;;;;;;5126105;28;20455;-55
2021/05/13 03:56:14;;;;;;;7.07;5.73;;;;;;;;;;5118115;28;20459;-50
2021/05/13 03:58:44;;;;;;;9.10;6.80;;;;;;;;;;5129425;28;20460;-60
2021/05/13 04:01:16;;;;;;;6.77;5.97;;;;;;;;;;5130289;28;20475;-57
2021/05/13 04:03:45;;;;;;;14.67;6.50;;;;;;;;;;5135916;28;20497;-57
2021/05/13 04:06:13;;;;;;;8.60;6.13;;;;;;;;;;5135976;28;20450;-60
2021/05/13 04:08:40;;;;;;;8.37;6.67;;;;;;;;;;5117727;28;20447;-59
2021/05/13 04:11:13;;;;;;;7.40;5.60;;;;;;;;;;5119008;28;20443;-59
2021/05/13 04:13:40;;;;;;;7.22;6.30;;;;;;;;;;5137110;28;21544;-58
2021/05/13 04:16:08;;;;;;;8.70;6.90;;;;;;;;;;5134781;28;20260;-56
2021/05/13 04:18:49;;;;;;;8.37;5.90;;;;;;;;;;5137514;28;20458;-59
2021/05/13 04:21:16;;;;;;;9.77;7.27;;;;;;;;;;5137256;28;20482;-57
2021/05/13 04:23:43;;;;;;;7.68;6.30;;;;;;;;;;5133661;28;20454;-60
2021/05/13 04:26:10;;;;;;;9.73;6.45;;;;;;;;;;5133958;28;20243;-58
2021/05/13 04:28:37;;;;;;;7.90;6.53;;;;;;;;;;5137673;28;20214;-58
2021/05/13 04:31:11;;;;;;;9.43;6.83;;;;;;;;;;5122238;28;20448;-58
2021/05/13 04:33:38;;;;;;;6.67;5.97;;;;;;;;;;5116820;28;20512;-60
2021/05/13 04:36:06;;;;;;;7.03;6.33;;;;;;;;;;5134162;28;20486;-60
2021/05/13 04:38:33;;;;;;;8.70;6.63;;;;;;;;;;5137578;28;20442;-54
2021/05/13 04:41:00;;;;;;;12.10;5.83;;;;;;;;;;5123249;28;20517;-58
2021/05/13 04:43:32;;;;;;;7.83;5.50;;;;;;;;;;5131135;28;20457;-54
2021/05/13 04:45:59;;;;;;;8.47;6.13;;;;;;;;;;5115603;28;20524;-56
2021/05/13 04:48:28;;;;;;;6.90;5.37;;;;;;;;;;5122348;28;20458;-59
2021/05/13 04:51:01;;;;;;;11.10;6.10;;;;;;;;;;5123756;28;20491;-57
2021/05/13 04:53:29;;;;;;;6.90;5.80;;;;;;;;;;5115545;28;20435;-57
2021/05/13 04:55:55;;;;;;;14.13;6.40;;;;;;;;;;5126907;28;20446;-56
2021/05/13 04:58:22;;;;;;;9.23;6.27;;;;;;;;;;5135511;28;20449;-56
2021/05/13 05:00:55;;;;;;;8.50;6.60;;;;;;;;;;5129154;28;20469;-54
2021/05/13 05:03:23;;;;;;;7.70;5.27;;;;;;;;;;5135287;28;20529;-57
2021/05/13 05:05:55;;;;;;;8.37;6.30;;;;;;;;;;5135555;28;20454;-60
2021/05/13 05:08:22;;;;;;;7.93;5.80;;;;;;;;;;5128307;28;20599;-53
2021/05/13 05:10:50;;;;;;;8.23;6.37;;;;;;;;;;5114925;28;20464;-52
2021/05/13 05:13:24;;;;;;;9.70;6.90;;;;;;;;;;5128394;28;20506;-54
2021/05/13 05:15:51;;;;;;;8.90;6.33;;;;;;;;;;5131426;28;20442;-57
2021/05/13 05:18:18;;;;;;;7.00;5.83;;;;;;;;;;5133131;28;20442;-61
2021/05/13 05:20:45;;;;;;;7.03;6.33;;;;;;;;;;5121726;28;20558;-59
2021/05/13 05:23:30;;;;;;;9.50;6.23;;;;;;;;;;5119939;28;20435;-56
2021/05/13 05:25:59;;;;;;;9.17;6.37;;;;;;;;;;5133230;28;20446;-57
2021/05/13 05:28:28;;;;;;;8.00;6.70;;;;;;;;;;5136577;28;20628;-57
2021/05/13 05:30:56;;;;;;;10.43;6.40;;;;;;;;;;5135679;28;20446;-56
2021/05/13 05:33:44;;;;;;;9.93;6.10;;;;;;;;;;5125987;28;20455;-53
2021/05/13 05:36:11;;;;;;;7.30;6.23;;;;;;;;;;5128528;28;20545;-59
2021/05/13 05:38:38;;;;;;;8.70;6.50;;;;;;;;;;5125498;28;20455;-52
2021/05/13 05:41:06;;;;;;;6.83;6.13;;;;;;;;;;5121553;28;20505;-55
2021/05/13 05:43:33;;;;;;;9.40;6.73;;;;;;;;;;5135181;28;20439;-60
2021/05/13 05:46:16;;;;;;;6.00;5.40;;;;;;;;;;5108087;28;20427;-51
2021/05/13 05:48:44;;;;;;;10.13;6.67;;;;;;;;;;5122848;28;20541;-55
2021/05/13 05:51:11;;;;;;;6.70;6.00;;;;;;;;;;5122979;28;20483;-57
2021/05/13 05:53:39;;;;;;;7.80;5.13;;;;;;;;;;5115030;28;20470;-58
2021/05/13 05:56:08;;;;;;;6.77;4.90;;;;;;;;;;5125267;28;20477;-56
2021/05/13 05:58:41;;;;;;;6.33;5.40;;;;;;;;;;5132003;28;20422;-60
2021/05/13 06:01:13;;;;;;;6.50;5.20;;;;;;;;;;5127783;28;20466;-60
2021/05/13 06:03:40;;;;;;;10.00;6.47;;;;;;;;;;5123299;28;20477;-56
2021/05/13 06:06:07;;;;;;;7.13;6.10;;;;;;;;;;5127718;28;20473;-49
2021/05/13 06:08:52;;;;;;;6.60;5.60;;;;;;;;;;5135943;28;20527;-57
2021/05/13 06:11:24;;;;;;;8.47;5.20;;;;;;;;;;5120901;28;20432;-53
2021/05/13 06:13:51;;;;;;;6.67;5.03;;;;;;;;;;5118864;28;20518;-55
2021/05/13 06:16:19;;;;;;;7.80;4.73;;;;;;;;;;5133843;28;20442;-57
2021/05/13 06:18:49;;;;;;;7.70;6.10;;;;;;;;;;5127143;28;20450;-56
2021/05/13 06:21:16;;;;;;;5.40;4.73;;;;;;;;;;5129535;28;20471;-52
2021/05/13 06:24:01;;;;;;;6.80;6.10;;;;;;;;;;5124468;28;20439;-60
2021/05/13 06:26:35;;;;;;;11.70;5.67;;;;;;;;;;5130644;28;20485;-61
2021/05/13 06:29:03;;;;;;;6.33;5.17;;;;;;;;;;5131433;28;20449;-61
2021/05/13 06:31:30;;;;;;;10.30;6.93;;;;;;;;;;5139090;28;20438;-59
2021/05/13 06:33:57;;;;;;;6.60;5.73;;;;;;;;;;5139565;28;20476;-55
2021/05/13 06:36:23;;;;;;;7.90;5.10;;;;;;;;;;5139397;28;20508;-56
2021/05/13 06:38:53;;;;;;;7.37;5.50;;;;;;;;;;5122260;28;20451;-58
2021/05/13 06:41:20;;;;;;;8.17;5.83;;;;;;;;;;5123256;28;20482;-53
2021/05/13 06:43:47;;;;;;;9.60;5.47;;;;;;;;;;5118137;28;20450;-61
2021/05/13 06:46:22;;;;;;;7.17;6.37;;;;;;;;;;5120118;28;20442;-60
2021/05/13 06:48:49;;;;;;;7.80;6.17;;;;;;;;;;5137425;28;20458;-58
2021/05/13 06:51:17;;;;;;;7.03;6.33;;;;;;;;;;5139393;28;20450;-61
2021/05/13 06:53:45;;;;;;;7.13;6.07;;;;;;;;;;5138714;28;20484;-56
2021/05/13 06:56:12;;;;;;;7.37;5.80;;;;;;;;;;5128886;28;20469;-57
2021/05/13 06:58:43;;;;;;;7.60;6.70;;;;;;;;;;5118970;28;20505;-59
2021/05/13 07:01:11;;;;;;;9.67;7.90;;;;;;;;;;5128665;28;20492;-61
2021/05/13 07:03:38;;;;;;;11.40;6.50;;;;;;;;;;5119042;28;20454;-59
2021/05/13 07:06:06;;;;;;;9.23;6.47;;;;;;;;;;5137312;28;20466;-59
2021/05/13 07:08:33;;;;;;;8.57;6.30;;;;;;;;;;5134018;28;20466;-57
2021/05/13 07:11:01;;;;;;;11.97;7.00;;;;;;;;;;5136634;28;20485;-59
2021/05/13 07:13:28;;;;;;;8.80;5.87;;;;;;;;;;5138410;28;20460;-57
2021/05/13 07:16:15;;;;;;;7.80;5.90;;;;;;;;;;5138422;28;20450;-56
2021/05/13 07:18:42;;;;;;;10.93;7.10;;;;;;;;;;5136715;28;20450;-58
2021/05/13 07:21:09;;;;;;;8.77;6.30;;;;;;;;;;5117712;28;20472;-58
2021/05/13 07:23:38;;;;;;;9.67;6.60;;;;;;;;;;5117467;28;20535;-58
2021/05/13 07:26:04;;;;;;;8.60;6.27;;;;;;;;;;5117907;28;20506;-52
2021/05/13 07:28:31;;;;;;;11.33;6.67;;;;;;;;;;5117759;28;20443;-57
2021/05/13 07:30:58;;;;;;;8.73;5.73;;;;;;;;;;5117231;28;20466;-58
2021/05/13 07:33:26;;;;;;;6.47;5.40;;;;;;;;;;5116834;28;20481;-56
2021/05/13 07:36:13;;;;;;;7.37;5.80;;;;;;;;;;5123140;28;20503;-54
2021/05/13 07:38:40;;;;;;;6.10;4.80;;;;;;;;;;5131468;28;20447;-56
2021/05/13 07:41:09;;;;;;;7.40;5.40;;;;;;;;;;5126816;28;20490;-51
2021/05/13 07:43:37;;;;;;;6.50;4.73;;;;;;;;;;5117500;28;20444;-59
2021/05/13 07:46:06;;;;;;;9.67;5.40;;;;;;;;;;5138472;28;20522;-54
2021/05/13 07:48:34;;;;;;;7.37;6.17;;;;;;;;;;5122992;28;20566;-61
2021/05/13 07:51:19;;;;;;;7.60;5.00;;;;;;;;;;5133403;28;20443;-55
2021/05/13 07:53:54;;;;;;;8.33;5.43;;;;;;;;;;5125993;28;20450;-60
2021/05/13 07:56:22;;;;;;;10.43;5.73;;;;;;;;;;5118553;28;20451;-59
2021/05/13 07:58:48;;;;;;;7.00;5.60;;;;;;;;;;5121610;28;20443;-55
2021/05/13 08:01:15;;;;;;;6.73;4.50;;;;;;;;;;5127312;28;20489;-57
2021/05/13 08:03:45;;;;;;;8.40;5.00;;;;;;;;;;5137307;28;20458;-55
2021/05/13 08:06:12;;;;;;;7.60;4.70;;;;;;;;;;5132900;28;20523;-56
2021/05/13 08:08:39;;;;;;;9.27;4.80;;;;;;;;;;5136417;28;20483;-54
2021/05/13 08:11:10;;;;;;;6.87;4.93;;;;;;;;;;5128390;28;20538;-54
2021/05/13 08:13:36;;;;;;;6.70;4.23;;;;;;;;;;5132662;28;20469;-57
2021/05/13 08:16:03;;;;;;;4.80;4.30;;;;;;;;;;5136710;28;20450;-56
2021/05/13 08:18:30;;;;;;;5.67;4.03;;;;;;;;;;5114362;28;20470;-53
2021/05/13 08:20:59;;;;;;;6.17;4.23;;;;;;;;;;5115759;28;20467;-54
2021/05/13 08:23:26;;;;;;;7.67;5.27;;;;;;;;;;5128586;28;20487;-55
2021/05/13 08:26:28;;;;;;;7.50;4.97;;;;;;;;;;5129397;28;20487;-59
2021/05/13 08:28:55;;;;;;;4.13;2.97;;;;;;;;;;5134787;28;20473;-61
2021/05/13 08:31:26;;;;;;;4.57;3.33;;;;;;;;;;5133418;28;20443;-58
2021/05/13 08:34:17;;;;;;;8.73;4.10;;;;;;;;;;5135449;28;20487;-59
2021/05/13 08:36:47;;;;;;;5.37;3.90;;;;;;;;;;5117835;28;20463;-57
2021/05/13 08:39:14;;;;;;;4.20;3.37;;;;;;;;;;5136460;27;20435;-56
2021/05/13 08:42:00;;;;;;;4.07;3.30;;;;;;;;;;5121322;28;20490;-59
2021/05/13 08:44:29;;;;;;;4.53;3.40;;;;;;;;;;5135872;27;20435;-54
2021/05/13 08:46:57;;;;;;;5.97;3.67;;;;;;;;;;5119420;28;20447;-53
2021/05/13 08:49:56;;;;;;;6.60;3.87;;;;;;;;;;5134009;28;20470;-59
2021/05/13 08:52:25;;;;;;;5.37;3.80;;;;;;;;;;5117585;28;20499;-61
2021/05/13 08:54:53;;;;;;;10.67;4.03;;;;;;;;;;5123052;28;20456;-57
2021/05/13 08:57:19;;;;;;;7.03;3.67;;;;;;;;;;5133397;28;20475;-56
2021/05/13 08:59:49;;;;;;;5.77;3.50;;;;;;;;;;5135979;28;20486;-52
2021/05/13 09:02:18;;;;;;;4.40;3.37;;;;;;;;;;5117604;28;20443;-58
2021/05/13 09:04:46;;;;;;;4.40;3.27;;;;;;;;;;5134091;28;20457;-55
2021/05/13 09:07:15;;;;;;;6.50;3.37;;;;;;;;;;5134845;28;20446;-53
2021/05/13 09:09:59;;;;;;;6.60;3.90;;;;;;;;;;5129847;28;20476;-55
2021/05/13 09:12:28;;;;;;;5.80;3.47;;;;;;;;;;5126715;28;20466;-55
2021/05/13 09:15:03;;;;;;;4.60;3.30;;;;;;;;;;5134337;28;20481;-57
2021/05/13 09:17:32;;;;;;;6.00;3.50;;;;;;;;;;5131736;28;20458;-57
2021/05/13 09:20:00;;;;;;;4.40;2.87;;;;;;;;;;5131072;28;20504;-55
2021/05/13 09:22:28;;;;;;;4.70;2.60;;;;;;;;;;5134045;28;20481;-49
2021/05/13 09:25:07;;;;;;;4.43;2.87;;;;;;;;;;5124726;28;20474;-57
2021/05/13 09:27:35;;;;;;;5.77;2.90;;;;;;;;;;5132082;28;20538;-59
2021/05/13 09:30:10;;;;;;;12.50;3.40;;;;;;;;;;5131844;28;20454;-54
2021/05/13 09:32:38;;;;;;;6.23;3.57;;;;;;;;;;5132454;28;20528;-54
2021/05/13 09:35:13;;;;;;;6.07;3.10;;;;;;;;;;5123458;28;20458;-54
2021/05/13 09:37:48;;;;;;;7.40;4.30;;;;;;;;;;5132881;28;20459;-53
2021/05/13 09:40:22;;;;;;;7.10;2.90;;;;;;;;;;5134262;28;20470;-54
2021/05/13 09:42:48;;;;;;;5.77;3.50;;;;;;;;;;5134657;28;20458;-55
2021/05/13 09:45:16;;;;;;;5.00;2.47;;;;;;;;;;5130653;28;20449;-57
2021/05/13 09:47:44;;;;;;;4.53;2.53;;;;;;;;;;5127528;28;20465;-53
2021/05/13 09:50:22;;;;;;;5.97;2.17;;;;;;;;;;5131154;28;20430;-53
2021/05/13 09:52:51;;;;;;;8.73;2.67;;;;;;;;;;5132857;28;20438;-56
2021/05/13 09:55:19;;;;;;;3.57;1.57;;;;;;;;;;5124942;28;20462;-57
2021/05/13 10:01:13;;;;;;;7.00;2.73;;;;;;;;;;5114763;28;20492;-61
2021/05/13 10:03:44;;;;;;;5.10;2.00;;;;;;;;;;5132452;28;20489;-53
2021/05/13 10:06:11;;;;;;;3.20;1.70;;;;;;;;;;5121496;28;20515;-51
2021/05/13 10:08:40;;;;;;;5.10;1.83;;;;;;;;;;5119606;28;20450;-55
2021/05/13 10:11:07;;;;;;;5.73;2.33;;;;;;;;;;5123956;28;20521;-56
2021/05/13 10:13:34;;;;;;;4.60;2.63;;;;;;;;;;5132574;28;20466;-55
2021/05/13 10:16:01;;;;;;;3.63;1.67;;;;;;;;;;5131609;28;20490;-58
2021/05/13 10:18:33;;;;;;;3.33;1.63;;;;;;;;;;5125287;28;20450;-57
2021/05/13 10:21:11;;;;;;;3.40;1.77;;;;;;;;;;5118924;28;20507;-55
2021/05/13 10:23:39;;;;;;;4.80;1.70;;;;;;;;;;5130159;28;20477;-53
2021/05/13 10:26:06;;;;;;;5.13;1.60;;;;;;;;;;5132209;28;20458;-60
2021/05/13 10:28:33;;;;;;;4.10;1.60;;;;;;;;;;5123682;28;20497;-58
2021/05/13 10:31:02;;;;;;;6.60;1.90;;;;;;;;;;5134188;28;20491;-52
2021/05/13 10:33:43;;;;;;;2.97;1.43;;;;;;;;;;5124798;28;20455;-56
2021/05/13 10:38:48;;;;;;;3.50;1.50;;;;;;;;;;4390161;26;20550;-51
2021/05/13 10:41:44;;;;;;;6.90;2.50;;;;;;;;;;5113686;28;20479;-55
2021/05/13 10:44:31;;;;;;;8.63;1.40;;;;;;;;;;5025187;28;20475;-60
2021/05/13 10:47:00;;;;;;;9.20;2.03;;;;;;;;;;5106468;28;20467;-60
2021/05/13 10:49:29;;;;;;;3.70;1.63;;;;;;;;;;5116593;28;20458;-54
2021/05/13 10:51:56;;;;;;;3.83;1.13;;;;;;;;;;5111462;28;20474;-57
2021/05/13 10:54:42;;;;;;;5.13;1.83;;;;;;;;;;5107388;28;20456;-50
2021/05/13 10:57:12;;;;;;;4.67;2.07;;;;;;;;;;5112536;28;20451;-54
2021/05/13 10:59:40;;;;;;;4.43;2.00;;;;;;;;;;5115445;28;20451;-55
2021/05/13 11:02:07;;;;;;;4.67;2.37;;;;;;;;;;5117126;28;20466;-56
2021/05/13 11:04:53;;;;;;;4.30;2.00;;;;;;;;;;5108575;28;20472;-54
2021/05/13 11:07:28;;;;;;;4.60;1.77;;;;;;;;;;5147359;27;20485;-50
2021/05/13 11:10:19;;;;;;;4.63;1.77;;;;;;;;;;5145526;27;20469;-56
2021/05/13 11:12:55;;;;;;;4.47;1.67;;;;;;;;;;5150514;27;20481;-56
2021/05/13 11:16:04;;;;;;;3.87;1.70;;;;;;;;;;5159291;27;20460;-59
2021/05/13 11:18:35;;;;;;;3.60;1.53;;;;;;;;;;5154514;27;20476;-56
2021/05/13 11:21:05;;;;;;;4.97;1.60;;;;;;;;;;5138905;28;20682;-55
2021/05/13 11:23:35;;;;;;;7.60;1.30;;;;;;;;;;5137474;27;20469;-53
2021/05/13 11:26:03;;;;;;;4.83;2.20;;;;;;;;;;5132916;28;20458;-61
2021/05/13 11:28:43;;;;;;;3.20;1.23;;;;;;;;;;5118143;28;20498;-57
2021/05/13 11:31:14;;;;;;;3.30;1.10;;;;;;;;;;5127666;28;20485;-51
2021/05/13 11:33:42;;;;;;;4.17;1.60;;;;;;;;;;5120674;28;20451;-54
2021/05/13 11:36:17;;;;;;;4.90;1.60;;;;;;;;;;5137314;28;20724;-57
2021/05/13 11:38:51;;;;;;;5.00;1.57;;;;;;;;;;5130259;28;20434;-60
2021/05/13 11:41:18;;;;;;;3.73;2.27;;;;;;;;;;5136550;28;20486;-57
2021/05/13 11:43:53;;;;;;;5.60;2.40;;;;;;;;;;5137858;28;20481;-59
2021/05/13 11:46:28;;;;;;;4.93;1.97;;;;;;;;;;5133855;28;20621;-59
2021/05/13 11:51:42;;;;;;;5.13;2.20;;;;;;;;;;5129188;28;20580;-58
2021/05/13 11:54:25;;;;;;;4.47;1.73;;;;;;;;;;5127501;28;20539;-53
2021/05/13 11:56:52;;;;;;;4.70;1.47;;;;;;;;;;5118134;28;20474;-56
2021/05/13 11:59:20;;;;;;;4.23;2.10;;;;;;;;;;5134692;28;20426;-60
2021/05/13 12:01:49;;;;;;;6.70;3.80;;;;;;;;;;5137187;28;20532;-59
2021/05/13 12:04:16;;;;;;;3.53;1.67;;;;;;;;;;5128482;28;20498;-54
2021/05/13 12:06:47;;;;;;;8.20;2.30;;;;;;;;;;5128530;28;20455;-57
2021/05/13 12:09:14;;;;;;;3.67;1.53;;;;;;;;;;5125052;28;20471;-55
2021/05/13 12:11:42;;;;;;;3.03;1.50;;;;;;;;;;5137140;28;20522;-58
2021/05/13 12:14:23;;;;;;;3.83;1.67;;;;;;;;;;5136064;28;20438;-56
2021/05/13 12:17:02;;;;;;;4.60;1.50;;;;;;;;;;5136677;28;20451;-60
2021/05/13 12:19:46;;;;;;;8.70;2.77;;;;;;;;;;5133260;28;20500;-49
2021/05/13 12:22:14;;;;;;;3.27;1.60;;;;;;;;;;5117020;28;20455;-55
2021/05/13 12:24:42;;;;;;;5.07;1.90;;;;;;;;;;5134412;28;20462;-57
2021/05/13 12:27:11;;;;;;;3.63;1.77;;;;;;;;;;5135941;28;20446;-57
2021/05/13 12:29:40;;;;;;;5.93;1.60;;;;;;;;;;5136260;28;20450;-60
2021/05/13 12:32:29;;;;;;;4.30;2.00;;;;;;;;;;5135833;28;20440;-56
2021/05/13 12:34:56;;;;;;;7.90;1.70;;;;;;;;;;5133049;28;20450;-53
2021/05/13 12:37:24;;;;;;;3.93;1.63;;;;;;;;;;5132291;28;20442;-56
2021/05/13 12:39:56;;;;;;;7.23;1.70;;;;;;;;;;5132854;28;20671;-59
2021/05/13 12:42:24;;;;;;;3.67;1.50;;;;;;;;;;5132500;28;20462;-54
2021/05/13 12:44:51;;;;;;;4.20;1.87;;;;;;;;;;5128202;28;20438;-55
2021/05/13 12:47:31;;;;;;;6.47;1.67;;;;;;;;;;5123115;28;20471;-58
2021/05/13 12:50:01;;;;;;;5.73;2.77;;;;;;;;;;5127605;28;20513;-59
2021/05/13 12:52:29;;;;;;;4.40;1.63;;;;;;;;;;5120759;28;20499;-57
2021/05/13 12:55:11;;;;;;;4.20;1.70;;;;;;;;;;5131206;28;20601;-61
2021/05/13 12:57:44;;;;;;;6.00;1.70;;;;;;;;;;5121673;28;20462;-58
2021/05/13 13:00:12;;;;;;;5.53;2.13;;;;;;;;;;5133182;28;20470;-57
2021/05/13 13:02:41;;;;;;;2.80;1.50;;;;;;;;;;5133773;28;20478;-61
2021/05/13 13:05:09;;;;;;;5.87;1.77;;;;;;;;;;5130137;28;20447;-53
2021/05/13 13:07:43;;;;;;;3.93;1.50;;;;;;;;;;5133806;28;20458;-54
2021/05/13 13:10:34;;;;;;;3.53;1.17;;;;;;;;;;5131176;28;20513;-54
2021/05/13 13:13:29;;;;;;;4.43;1.33;;;;;;;;;;5134819;28;20434;-55
2021/05/13 13:16:01;;;;;;;2.47;1.10;;;;;;;;;;5119087;28;20463;-60
2021/05/13 13:18:56;;;;;;;4.97;1.53;;;;;;;;;;5126271;28;20442;-51
2021/05/13 13:21:23;;;;;;;6.03;1.63;;;;;;;;;;5127829;28;20475;-55
2021/05/13 13:23:51;;;;;;;2.93;1.17;;;;;;;;;;5127297;28;20473;-55
2021/05/13 13:26:41;;;;;;;4.70;1.40;;;;;;;;;;5127138;28;20443;-58
2021/05/13 13:29:09;;;;;;;4.03;1.70;;;;;;;;;;5124242;28;20507;-55
2021/05/13 13:31:39;;;;;;;2.93;0.97;;;;;;;;;;5120831;28;20430;-58
2021/05/13 13:34:07;;;;;;;3.40;1.37;;;;;;;;;;5129479;28;20459;-57
2021/05/13 13:36:34;;;;;;;3.97;1.33;;;;;;;;;;5120251;28;20856;-58
2021/05/13 13:39:02;;;;;;;5.50;1.67;;;;;;;;;;5119256;28;20470;-59
2021/05/13 13:44:41;;;;;;;7.27;4.90;;;;;;;;;;5132327;28;20452;-56
2021/05/13 13:47:08;;;;;;;4.30;2.57;;;;;;;;;;5123015;28;20446;-58
2021/05/13 13:49:36;;;;;;;8.13;2.47;;;;;;;;;;5126467;28;20450;-57
2021/05/13 13:52:03;;;;;;;6.00;2.00;;;;;;;;;;5124763;28;20453;-56
2021/05/13 13:54:36;;;;;;;6.07;2.57;;;;;;;;;;5131138;28;20451;-57
2021/05/13 13:57:05;;;;;;;10.57;7.10;;;;;;;;;;5121560;28;20497;-57
2021/05/13 13:59:32;;;;;;;9.90;4.87;;;;;;;;;;5130065;28;20447;-56
2021/05/13 14:02:19;;;;;;;4.83;2.30;;;;;;;;;;5126176;28;20469;-60
2021/05/13 14:04:46;;;;;;;11.50;5.37;;;;;;;;;;5126754;28;20485;-57
2021/05/13 14:07:23;;;;;;;3.90;2.10;;;;;;;;;;5117401;28;20443;-58
2021/05/13 14:09:56;;;;;;;4.43;2.50;;;;;;;;;;5128457;28;20524;-57
2021/05/13 14:12:24;;;;;;;5.30;2.87;;;;;;;;;;5124696;28;20476;-59
2021/05/13 14:14:58;;;;;;;5.20;2.60;;;;;;;;;;5131871;28;20442;-56
2021/05/13 14:17:26;;;;;;;4.97;1.80;;;;;;;;;;5135437;28;20457;-53
2021/05/13 14:19:53;;;;;;;3.50;1.90;;;;;;;;;;5130783;28;20458;-51
2021/05/13 14:22:20;;;;;;;3.23;1.27;;;;;;;;;;5137495;28;20454;-50
2021/05/13 14:24:47;;;;;;;3.70;1.77;;;;;;;;;;5122403;28;20466;-53
2021/05/13 14:27:27;;;;;;;3.20;1.73;;;;;;;;;;5128136;28;20464;-54
2021/05/13 14:29:54;;;;;;;5.60;2.27;;;;;;;;;;5132121;28;20487;-57
2021/05/13 14:32:21;;;;;;;5.33;2.17;;;;;;;;;;5125061;28;20456;-55
2021/05/13 14:34:56;;;;;;;8.43;2.67;;;;;;;;;;5126914;28;20447;-56
2021/05/13 14:37:28;;;;;;;5.43;2.10;;;;;;;;;;5121541;28;20462;-52
2021/05/13 14:39:58;;;;;;;7.20;2.17;;;;;;;;;;5120767;28;20516;-54
2021/05/13 14:42:28;;;;;;;6.50;2.50;;;;;;;;;;5128895;28;20502;-52
2021/05/13 14:44:57;;;;;;;6.00;1.80;;;;;;;;;;5134264;28;20925;-59
2021/05/13 14:47:37;;;;;;;3.87;2.23;;;;;;;;;;5124504;28;20459;-57
2021/05/13 14:50:05;;;;;;;5.20;2.20;;;;;;;;;;5120206;28;20469;-52
2021/05/13 14:52:32;;;;;;;5.17;2.30;;;;;;;;;;5131797;28;20471;-55
2021/05/13 14:55:19;;;;;;;9.83;2.40;;;;;;;;;;5134547;28;20455;-53
2021/05/13 14:57:48;;;;;;;6.93;1.60;;;;;;;;;;5128053;28;20427;-54
2021/05/13 15:00:17;;;;;;;7.93;2.03;;;;;;;;;;5123281;28;20461;-55
2021/05/13 15:05:58;;;;;;;5.30;1.83;;;;;;;;;;5108494;28;20497;-58
2021/05/13 15:08:25;;;;;;;5.30;1.80;;;;;;;;;;5095740;28;20480;-53
2021/05/13 15:11:19;;;;;;;5.20;2.10;;;;;;;;;;5108787;28;20451;-48
2021/05/13 15:13:46;;;;;;;5.60;2.70;;;;;;;;;;5109604;28;20645;-53
2021/05/13 15:16:13;;;;;;;6.30;2.27;;;;;;;;;;5115844;28;20459;-56
2021/05/13 15:18:59;;;;;;;8.53;1.53;;;;;;;;;;5110865;28;20451;-58
2021/05/13 15:21:26;;;;;;;5.80;2.30;;;;;;;;;;5106829;28;20487;-54
2021/05/13 15:23:53;;;;;;;4.73;1.63;;;;;;;;;;5115627;28;20479;-54